sensor_id;sensor_type;location;lat;lon;timestamp;P1;durP1;ratioP1;P2;durP2;ratioP2
5630;SDS011;2837;50.990;7.124;2022-09-02T05:01:56;148.07;;;8.50;;
5630;SDS011;2837;50.990;7.124;2022-09-02T05:04:21;148.17;;;8.60;;
5630;SDS011;2837;50.990;7.124;2022-09-02T05:06:47;147.37;;;8.50;;
5630;SDS011;2837;50.990;7.124;2022-09-02T05:09:14;147.83;;;8.13;;
5630;SDS011;2837;50.990;7.124;2022-09-02T05:11:40;147.97;;;9.07;;
5630;SDS011;2837;50.990;7.124;2022-09-02T05:14:06;148.23;;;9.37;;
5630;SDS011;2837;50.990;7.124;2022-09-02T05:16:33;150.40;;;9.40;;
5630;SDS011;2837;50.990;7.124;2022-09-02T05:19:01;147.90;;;8.90;;
5630;SDS011;2837;50.990;7.124;2022-09-02T05:21:28;148.73;;;8.60;;
5630;SDS011;2837;50.990;7.124;2022-09-02T05:23:56;148.23;;;9.07;;
5630;SDS011;2837;50.990;7.124;2022-09-02T05:26:22;149.03;;;9.13;;
5630;SDS011;2837;50.990;7.124;2022-09-02T05:28:48;148.77;;;9.47;;
5630;SDS011;2837;50.990;7.124;2022-09-02T05:31:15;147.97;;;8.33;;
5630;SDS011;2837;50.990;7.124;2022-09-02T05:33:43;147.37;;;8.03;;
5630;SDS011;2837;50.990;7.124;2022-09-02T05:36:14;147.77;;;8.77;;
5630;SDS011;2837;50.990;7.124;2022-09-02T05:38:42;147.57;;;8.87;;
5630;SDS011;2837;50.990;7.124;2022-09-02T05:41:09;148.57;;;9.00;;
5630;SDS011;2837;50.990;7.124;2022-09-02T05:43:43;149.00;;;9.10;;
5630;SDS011;2837;50.990;7.124;2022-09-02T05:46:10;151.27;;;8.30;;
5630;SDS011;2837;50.990;7.124;2022-09-02T05:48:41;147.83;;;8.83;;
5630;SDS011;2837;50.990;7.124;2022-09-02T05:51:26;148.87;;;9.07;;
5630;SDS011;2837;50.990;7.124;2022-09-02T05:53:53;149.13;;;9.97;;
5630;SDS011;2837;50.990;7.124;2022-09-02T05:56:20;149.27;;;9.30;;
5630;SDS011;2837;50.990;7.124;2022-09-02T05:58:46;150.13;;;8.80;;
5630;SDS011;2837;50.990;7.124;2022-09-02T06:01:13;149.97;;;9.83;;
5630;SDS011;2837;50.990;7.124;2022-09-02T06:03:40;148.83;;;9.27;;
5630;SDS011;2837;50.990;7.124;2022-09-02T06:06:06;147.53;;;8.60;;
5630;SDS011;2837;50.990;7.124;2022-09-02T06:08:32;151.50;;;8.23;;
5630;SDS011;2837;50.990;7.124;2022-09-02T06:10:58;148.50;;;8.30;;
5630;SDS011;2837;50.990;7.124;2022-09-02T06:13:32;149.43;;;9.00;;
5630;SDS011;2837;50.990;7.124;2022-09-02T06:15:59;147.70;;;8.73;;
5630;SDS011;2837;50.990;7.124;2022-09-02T06:18:26;152.00;;;8.70;;
5630;SDS011;2837;50.990;7.124;2022-09-02T06:20:52;148.70;;;9.40;;
5630;SDS011;2837;50.990;7.124;2022-09-02T06:23:18;147.37;;;8.97;;
5630;SDS011;2837;50.990;7.124;2022-09-02T06:25:45;147.50;;;8.33;;
5630;SDS011;2837;50.990;7.124;2022-09-02T06:28:12;148.13;;;8.47;;
5630;SDS011;2837;50.990;7.124;2022-09-02T06:30:43;147.60;;;8.67;;
5630;SDS011;2837;50.990;7.124;2022-09-02T06:33:10;149.00;;;8.83;;
5630;SDS011;2837;50.990;7.124;2022-09-02T06:35:37;147.30;;;8.63;;
5630;SDS011;2837;50.990;7.124;2022-09-02T06:38:04;146.87;;;8.27;;
5630;SDS011;2837;50.990;7.124;2022-09-02T06:40:30;148.37;;;9.10;;
5630;SDS011;2837;50.990;7.124;2022-09-02T06:42:56;147.53;;;9.13;;
5630;SDS011;2837;50.990;7.124;2022-09-02T06:45:22;146.77;;;7.97;;
5630;SDS011;2837;50.990;7.124;2022-09-02T06:47:48;147.63;;;9.10;;
5630;SDS011;2837;50.990;7.124;2022-09-02T06:50:14;156.80;;;9.13;;
5630;SDS011;2837;50.990;7.124;2022-09-02T06:52:40;147.83;;;8.50;;
5630;SDS011;2837;50.990;7.124;2022-09-02T06:55:06;150.37;;;9.23;;
5630;SDS011;2837;50.990;7.124;2022-09-02T06:57:32;147.87;;;8.83;;
5630;SDS011;2837;50.990;7.124;2022-09-02T06:59:58;148.53;;;9.40;;
5630;SDS011;2837;50.990;7.124;2022-09-02T07:02:23;147.97;;;9.07;;
5630;SDS011;2837;50.990;7.124;2022-09-02T07:04:49;148.07;;;9.07;;
5630;SDS011;2837;50.990;7.124;2022-09-02T07:07:37;148.03;;;8.80;;
5630;SDS011;2837;50.990;7.124;2022-09-02T07:10:04;148.57;;;9.20;;
5630;SDS011;2837;50.990;7.124;2022-09-02T07:12:34;148.80;;;8.97;;
5630;SDS011;2837;50.990;7.124;2022-09-02T07:15:01;148.13;;;9.07;;
5630;SDS011;2837;50.990;7.124;2022-09-02T07:17:27;147.77;;;9.10;;
5630;SDS011;2837;50.990;7.124;2022-09-02T07:19:53;150.77;;;8.60;;
5630;SDS011;2837;50.990;7.124;2022-09-02T07:22:21;149.77;;;9.50;;
5630;SDS011;2837;50.990;7.124;2022-09-02T07:24:47;148.50;;;9.87;;
5630;SDS011;2837;50.990;7.124;2022-09-02T07:27:12;149.57;;;8.80;;
5630;SDS011;2837;50.990;7.124;2022-09-02T07:29:39;149.67;;;9.47;;
5630;SDS011;2837;50.990;7.124;2022-09-02T07:32:07;148.07;;;9.47;;
5630;SDS011;2837;50.990;7.124;2022-09-02T07:34:32;151.80;;;8.87;;
5630;SDS011;2837;50.990;7.124;2022-09-02T07:36:58;148.57;;;9.50;;
5630;SDS011;2837;50.990;7.124;2022-09-02T07:39:24;147.97;;;9.30;;
5630;SDS011;2837;50.990;7.124;2022-09-02T07:41:50;148.60;;;9.67;;
5630;SDS011;2837;50.990;7.124;2022-09-02T07:44:16;149.90;;;8.73;;
5630;SDS011;2837;50.990;7.124;2022-09-02T07:46:43;147.67;;;8.60;;
5630;SDS011;2837;50.990;7.124;2022-09-02T07:49:10;148.47;;;9.30;;
5630;SDS011;2837;50.990;7.124;2022-09-02T07:51:38;147.57;;;8.30;;
5630;SDS011;2837;50.990;7.124;2022-09-02T07:54:05;147.37;;;8.20;;
5630;SDS011;2837;50.990;7.124;2022-09-02T07:56:32;146.73;;;8.20;;
5630;SDS011;2837;50.990;7.124;2022-09-02T07:58:58;149.33;;;8.03;;
5630;SDS011;2837;50.990;7.124;2022-09-02T08:01:23;152.17;;;8.60;;
5630;SDS011;2837;50.990;7.124;2022-09-02T08:03:50;146.47;;;7.70;;
5630;SDS011;2837;50.990;7.124;2022-09-02T08:06:16;147.67;;;8.97;;
5630;SDS011;2837;50.990;7.124;2022-09-02T08:08:42;147.57;;;8.60;;
5630;SDS011;2837;50.990;7.124;2022-09-02T08:11:08;147.77;;;8.23;;
5630;SDS011;2837;50.990;7.124;2022-09-02T08:13:34;148.33;;;7.97;;
5630;SDS011;2837;50.990;7.124;2022-09-02T08:16:01;147.53;;;8.17;;
5630;SDS011;2837;50.990;7.124;2022-09-02T08:18:27;145.80;;;8.17;;
5630;SDS011;2837;50.990;7.124;2022-09-02T08:20:53;146.80;;;8.27;;
5630;SDS011;2837;50.990;7.124;2022-09-02T08:23:19;146.57;;;8.17;;
5630;SDS011;2837;50.990;7.124;2022-09-02T08:25:45;147.10;;;8.30;;
5630;SDS011;2837;50.990;7.124;2022-09-02T08:28:11;147.00;;;8.73;;
5630;SDS011;2837;50.990;7.124;2022-09-02T08:30:37;146.83;;;8.20;;
5630;SDS011;2837;50.990;7.124;2022-09-02T08:33:02;146.30;;;7.20;;
5630;SDS011;2837;50.990;7.124;2022-09-02T08:35:28;145.57;;;7.53;;
5630;SDS011;2837;50.990;7.124;2022-09-02T08:37:54;147.07;;;9.20;;
5630;SDS011;2837;50.990;7.124;2022-09-02T08:40:23;147.13;;;8.97;;
5630;SDS011;2837;50.990;7.124;2022-09-02T08:42:55;147.57;;;7.90;;
5630;SDS011;2837;50.990;7.124;2022-09-02T08:45:26;146.57;;;8.17;;
5630;SDS011;2837;50.990;7.124;2022-09-02T08:48:03;146.10;;;8.47;;
5630;SDS011;2837;50.990;7.124;2022-09-02T08:50:35;147.33;;;8.00;;
5630;SDS011;2837;50.990;7.124;2022-09-02T08:53:16;146.07;;;8.10;;
5630;SDS011;2837;50.990;7.124;2022-09-02T08:55:54;145.97;;;7.80;;
5630;SDS011;2837;50.990;7.124;2022-09-02T08:58:23;146.07;;;8.00;;
5630;SDS011;2837;50.990;7.124;2022-09-02T09:06:44;146.50;;;8.57;;
5630;SDS011;2837;50.990;7.124;2022-09-02T09:09:16;145.67;;;7.57;;
5630;SDS011;2837;50.990;7.124;2022-09-02T09:12:02;146.37;;;7.90;;
5630;SDS011;2837;50.990;7.124;2022-09-02T09:14:56;145.87;;;7.33;;
5630;SDS011;2837;50.990;7.124;2022-09-02T09:17:54;146.70;;;8.57;;
5630;SDS011;2837;50.990;7.124;2022-09-02T09:20:33;146.57;;;8.77;;
5630;SDS011;2837;50.990;7.124;2022-09-02T09:23:05;147.57;;;7.73;;
5630;SDS011;2837;50.990;7.124;2022-09-02T09:26:04;145.60;;;8.30;;
5630;SDS011;2837;50.990;7.124;2022-09-02T09:28:45;145.37;;;8.20;;
5630;SDS011;2837;50.990;7.124;2022-09-02T09:31:21;145.70;;;7.90;;
5630;SDS011;2837;50.990;7.124;2022-09-02T09:33:54;145.57;;;7.80;;
5630;SDS011;2837;50.990;7.124;2022-09-02T09:41:54;146.60;;;8.13;;
5630;SDS011;2837;50.990;7.124;2022-09-02T09:47:21;145.33;;;8.40;;
5630;SDS011;2837;50.990;7.124;2022-09-02T09:49:54;146.00;;;7.47;;
5630;SDS011;2837;50.990;7.124;2022-09-02T09:52:43;145.93;;;8.03;;
5630;SDS011;2837;50.990;7.124;2022-09-02T09:55:11;145.43;;;7.70;;
5630;SDS011;2837;50.990;7.124;2022-09-02T09:57:42;145.10;;;7.60;;
5630;SDS011;2837;50.990;7.124;2022-09-02T10:00:11;144.20;;;7.20;;
5630;SDS011;2837;50.990;7.124;2022-09-02T10:02:49;146.07;;;8.87;;
5630;SDS011;2837;50.990;7.124;2022-09-02T10:07:52;145.60;;;8.27;;
5630;SDS011;2837;50.990;7.124;2022-09-02T10:10:22;148.07;;;8.83;;
5630;SDS011;2837;50.990;7.124;2022-09-02T10:12:50;145.83;;;7.63;;
5630;SDS011;2837;50.990;7.124;2022-09-02T10:15:23;148.77;;;8.10;;
5630;SDS011;2837;50.990;7.124;2022-09-02T10:18:11;144.63;;;7.70;;
5630;SDS011;2837;50.990;7.124;2022-09-02T10:23:43;146.07;;;9.13;;
5630;SDS011;2837;50.990;7.124;2022-09-02T10:26:23;144.87;;;8.17;;
5630;SDS011;2837;50.990;7.124;2022-09-02T10:37:18;145.20;;;8.10;;
5630;SDS011;2837;50.990;7.124;2022-09-02T10:42:45;146.50;;;7.80;;
5630;SDS011;2837;50.990;7.124;2022-09-02T10:45:35;148.87;;;8.30;;
5630;SDS011;2837;50.990;7.124;2022-09-02T10:48:18;146.13;;;8.30;;
5630;SDS011;2837;50.990;7.124;2022-09-02T10:56:50;144.80;;;7.90;;
5630;SDS011;2837;50.990;7.124;2022-09-02T10:59:29;143.67;;;7.10;;
5630;SDS011;2837;50.990;7.124;2022-09-02T11:04:52;143.63;;;6.90;;
5630;SDS011;2837;50.990;7.124;2022-09-02T11:07:27;144.10;;;7.10;;
5630;SDS011;2837;50.990;7.124;2022-09-02T11:10:05;145.13;;;8.10;;
5630;SDS011;2837;50.990;7.124;2022-09-02T11:18:38;144.47;;;7.13;;
5630;SDS011;2837;50.990;7.124;2022-09-02T11:24:09;144.83;;;7.83;;
5630;SDS011;2837;50.990;7.124;2022-09-02T11:29:39;143.90;;;7.23;;
5630;SDS011;2837;50.990;7.124;2022-09-02T11:32:14;144.87;;;7.40;;
5630;SDS011;2837;50.990;7.124;2022-09-02T11:34:49;143.97;;;7.47;;
5630;SDS011;2837;50.990;7.124;2022-09-02T11:40:30;146.60;;;7.00;;
5630;SDS011;2837;50.990;7.124;2022-09-02T11:54:19;143.97;;;7.57;;
5630;SDS011;2837;50.990;7.124;2022-09-02T11:56:48;143.17;;;7.10;;
5630;SDS011;2837;50.990;7.124;2022-09-02T11:59:21;143.50;;;7.27;;
5630;SDS011;2837;50.990;7.124;2022-09-02T12:02:13;144.00;;;7.90;;
5630;SDS011;2837;50.990;7.124;2022-09-02T12:21:17;143.20;;;6.83;;
5630;SDS011;2837;50.990;7.124;2022-09-02T12:26:14;143.47;;;7.27;;
5630;SDS011;2837;50.990;7.124;2022-09-02T12:28:43;143.97;;;7.43;;
5630;SDS011;2837;50.990;7.124;2022-09-02T12:31:39;143.30;;;7.50;;
5630;SDS011;2837;50.990;7.124;2022-09-02T12:36:57;143.17;;;6.93;;
5630;SDS011;2837;50.990;7.124;2022-09-02T12:52:41;144.10;;;7.93;;
5630;SDS011;2837;50.990;7.124;2022-09-02T12:55:23;143.30;;;7.00;;
5630;SDS011;2837;50.990;7.124;2022-09-02T12:57:53;143.50;;;7.37;;
5630;SDS011;2837;50.990;7.124;2022-09-02T13:14:12;143.67;;;7.87;;
5630;SDS011;2837;50.990;7.124;2022-09-02T13:16:47;146.37;;;7.47;;
5630;SDS011;2837;50.990;7.124;2022-09-02T13:19:47;144.77;;;8.17;;
5630;SDS011;2837;50.990;7.124;2022-09-02T13:31:40;142.90;;;7.60;;
5630;SDS011;2837;50.990;7.124;2022-09-02T13:34:02;143.20;;;7.77;;
5630;SDS011;2837;50.990;7.124;2022-09-02T13:36:36;143.13;;;7.27;;
5630;SDS011;2837;50.990;7.124;2022-09-02T13:39:09;143.80;;;8.10;;
5630;SDS011;2837;50.990;7.124;2022-09-02T13:41:41;144.07;;;8.20;;
5630;SDS011;2837;50.990;7.124;2022-09-02T13:44:08;143.53;;;7.60;;
5630;SDS011;2837;50.990;7.124;2022-09-02T13:46:42;147.27;;;7.90;;
5630;SDS011;2837;50.990;7.124;2022-09-02T13:49:19;143.20;;;7.90;;
5630;SDS011;2837;50.990;7.124;2022-09-02T13:51:51;143.50;;;8.10;;
5630;SDS011;2837;50.990;7.124;2022-09-02T13:54:29;143.00;;;7.40;;
5630;SDS011;2837;50.990;7.124;2022-09-02T13:57:02;146.30;;;7.80;;
5630;SDS011;2837;50.990;7.124;2022-09-02T13:59:37;142.47;;;7.27;;
5630;SDS011;2837;50.990;7.124;2022-09-02T14:05:34;142.97;;;7.20;;
5630;SDS011;2837;50.990;7.124;2022-09-02T14:07:51;143.10;;;7.37;;
5630;SDS011;2837;50.990;7.124;2022-09-02T14:10:20;149.57;;;8.13;;
5630;SDS011;2837;50.990;7.124;2022-09-02T14:12:47;142.53;;;7.47;;
5630;SDS011;2837;50.990;7.124;2022-09-02T14:15:15;143.07;;;8.13;;
5630;SDS011;2837;50.990;7.124;2022-09-02T14:18:05;143.37;;;8.47;;
5630;SDS011;2837;50.990;7.124;2022-09-02T14:20:32;143.13;;;7.57;;
5630;SDS011;2837;50.990;7.124;2022-09-02T14:22:58;142.33;;;7.30;;
5630;SDS011;2837;50.990;7.124;2022-09-02T14:25:25;143.70;;;8.63;;
5630;SDS011;2837;50.990;7.124;2022-09-02T14:27:56;142.73;;;7.20;;
5630;SDS011;2837;50.990;7.124;2022-09-02T14:36:45;143.37;;;7.87;;
5630;SDS011;2837;50.990;7.124;2022-09-02T14:41:13;144.47;;;7.43;;
5630;SDS011;2837;50.990;7.124;2022-09-02T14:43:53;143.43;;;8.40;;
5630;SDS011;2837;50.990;7.124;2022-09-02T14:47:22;143.70;;;7.90;;
5630;SDS011;2837;50.990;7.124;2022-09-02T14:49:31;144.10;;;8.40;;
5630;SDS011;2837;50.990;7.124;2022-09-02T14:52:04;143.10;;;7.87;;
5630;SDS011;2837;50.990;7.124;2022-09-02T14:54:43;144.97;;;7.50;;
5630;SDS011;2837;50.990;7.124;2022-09-02T14:59:55;143.37;;;7.87;;
5630;SDS011;2837;50.990;7.124;2022-09-02T15:02:43;143.53;;;7.63;;
5630;SDS011;2837;50.990;7.124;2022-09-02T15:05:12;142.87;;;7.03;;
5630;SDS011;2837;50.990;7.124;2022-09-02T15:07:38;144.20;;;7.93;;
5630;SDS011;2837;50.990;7.124;2022-09-02T15:10:05;142.97;;;7.20;;
5630;SDS011;2837;50.990;7.124;2022-09-02T15:12:36;143.17;;;7.73;;
5630;SDS011;2837;50.990;7.124;2022-09-02T15:15:05;142.43;;;7.43;;
5630;SDS011;2837;50.990;7.124;2022-09-02T15:17:31;142.97;;;8.07;;
5630;SDS011;2837;50.990;7.124;2022-09-02T15:19:56;144.10;;;8.73;;
5630;SDS011;2837;50.990;7.124;2022-09-02T15:22:22;143.07;;;7.87;;
5630;SDS011;2837;50.990;7.124;2022-09-02T15:24:48;143.27;;;8.33;;
5630;SDS011;2837;50.990;7.124;2022-09-02T15:27:14;145.23;;;8.00;;
5630;SDS011;2837;50.990;7.124;2022-09-02T15:29:40;147.87;;;7.63;;
5630;SDS011;2837;50.990;7.124;2022-09-02T15:32:06;142.87;;;7.80;;
5630;SDS011;2837;50.990;7.124;2022-09-02T15:34:32;144.63;;;8.67;;
5630;SDS011;2837;50.990;7.124;2022-09-02T15:36:59;142.67;;;7.57;;
5630;SDS011;2837;50.990;7.124;2022-09-02T15:39:25;144.33;;;7.77;;
5630;SDS011;2837;50.990;7.124;2022-09-02T15:41:51;143.80;;;8.70;;
5630;SDS011;2837;50.990;7.124;2022-09-02T15:44:21;143.67;;;7.87;;
5630;SDS011;2837;50.990;7.124;2022-09-02T15:46:51;142.80;;;7.60;;
5630;SDS011;2837;50.990;7.124;2022-09-02T15:49:17;143.40;;;7.77;;
5630;SDS011;2837;50.990;7.124;2022-09-02T15:51:44;143.03;;;7.90;;
5630;SDS011;2837;50.990;7.124;2022-09-02T15:54:11;142.77;;;7.50;;
5630;SDS011;2837;50.990;7.124;2022-09-02T15:56:39;142.67;;;7.60;;
5630;SDS011;2837;50.990;7.124;2022-09-02T15:59:07;142.80;;;7.67;;
5630;SDS011;2837;50.990;7.124;2022-09-02T16:01:42;143.17;;;8.00;;
5630;SDS011;2837;50.990;7.124;2022-09-02T16:04:10;142.77;;;7.10;;
5630;SDS011;2837;50.990;7.124;2022-09-02T16:06:37;144.40;;;7.57;;
5630;SDS011;2837;50.990;7.124;2022-09-02T16:09:05;143.47;;;8.47;;
5630;SDS011;2837;50.990;7.124;2022-09-02T16:11:31;142.20;;;7.30;;
5630;SDS011;2837;50.990;7.124;2022-09-02T16:13:57;142.60;;;7.80;;
5630;SDS011;2837;50.990;7.124;2022-09-02T16:16:23;142.97;;;8.00;;
5630;SDS011;2837;50.990;7.124;2022-09-02T16:18:52;143.27;;;7.97;;
5630;SDS011;2837;50.990;7.124;2022-09-02T16:21:18;143.67;;;7.70;;
5630;SDS011;2837;50.990;7.124;2022-09-02T16:23:45;143.20;;;7.17;;
5630;SDS011;2837;50.990;7.124;2022-09-02T16:26:14;143.60;;;7.83;;
5630;SDS011;2837;50.990;7.124;2022-09-02T16:28:46;143.53;;;7.97;;
5630;SDS011;2837;50.990;7.124;2022-09-02T16:31:12;142.50;;;7.43;;
5630;SDS011;2837;50.990;7.124;2022-09-02T16:33:41;142.70;;;7.53;;
5630;SDS011;2837;50.990;7.124;2022-09-02T16:36:08;143.00;;;8.20;;
5630;SDS011;2837;50.990;7.124;2022-09-02T16:38:34;142.37;;;7.00;;
5630;SDS011;2837;50.990;7.124;2022-09-02T16:41:00;146.13;;;7.83;;
5630;SDS011;2837;50.990;7.124;2022-09-02T16:43:26;142.77;;;7.33;;
5630;SDS011;2837;50.990;7.124;2022-09-02T16:45:53;142.83;;;7.60;;
5630;SDS011;2837;50.990;7.124;2022-09-02T16:48:20;143.37;;;7.73;;
5630;SDS011;2837;50.990;7.124;2022-09-02T16:50:47;144.43;;;8.10;;
5630;SDS011;2837;50.990;7.124;2022-09-02T16:53:13;144.57;;;7.07;;
5630;SDS011;2837;50.990;7.124;2022-09-02T16:55:41;142.33;;;6.80;;
5630;SDS011;2837;50.990;7.124;2022-09-02T16:58:07;144.87;;;8.23;;
5630;SDS011;2837;50.990;7.124;2022-09-02T17:00:38;143.07;;;7.20;;
5630;SDS011;2837;50.990;7.124;2022-09-02T17:03:05;142.87;;;7.60;;
5630;SDS011;2837;50.990;7.124;2022-09-02T17:05:31;142.50;;;6.90;;
5630;SDS011;2837;50.990;7.124;2022-09-02T17:07:57;144.00;;;8.47;;
5630;SDS011;2837;50.990;7.124;2022-09-02T17:10:25;150.40;;;7.80;;
5630;SDS011;2837;50.990;7.124;2022-09-02T17:12:52;143.67;;;8.30;;
5630;SDS011;2837;50.990;7.124;2022-09-02T17:15:19;143.27;;;7.43;;
5630;SDS011;2837;50.990;7.124;2022-09-02T17:17:44;142.97;;;7.23;;
5630;SDS011;2837;50.990;7.124;2022-09-02T17:20:10;143.90;;;7.17;;
5630;SDS011;2837;50.990;7.124;2022-09-02T17:22:37;142.20;;;6.90;;
5630;SDS011;2837;50.990;7.124;2022-09-02T17:25:03;143.03;;;6.83;;
5630;SDS011;2837;50.990;7.124;2022-09-02T17:27:29;143.47;;;7.10;;
5630;SDS011;2837;50.990;7.124;2022-09-02T17:29:55;143.07;;;7.57;;
5630;SDS011;2837;50.990;7.124;2022-09-02T17:32:22;144.37;;;7.00;;
5630;SDS011;2837;50.990;7.124;2022-09-02T17:34:49;144.03;;;6.87;;
5630;SDS011;2837;50.990;7.124;2022-09-02T17:37:15;143.17;;;7.27;;
5630;SDS011;2837;50.990;7.124;2022-09-02T17:39:41;142.57;;;6.67;;
5630;SDS011;2837;50.990;7.124;2022-09-02T17:42:07;143.10;;;6.57;;
5630;SDS011;2837;50.990;7.124;2022-09-02T17:44:36;143.97;;;7.20;;
5630;SDS011;2837;50.990;7.124;2022-09-02T17:47:04;143.20;;;7.57;;
5630;SDS011;2837;50.990;7.124;2022-09-02T17:49:34;143.43;;;7.60;;
5630;SDS011;2837;50.990;7.124;2022-09-02T17:52:00;143.87;;;7.63;;
5630;SDS011;2837;50.990;7.124;2022-09-02T17:54:29;145.60;;;7.53;;
5630;SDS011;2837;50.990;7.124;2022-09-02T17:57:08;144.07;;;7.80;;
5630;SDS011;2837;50.990;7.124;2022-09-02T18:07:28;143.73;;;7.57;;
5630;SDS011;2837;50.990;7.124;2022-09-02T18:09:58;146.10;;;7.23;;
5630;SDS011;2837;50.990;7.124;2022-09-02T18:12:23;145.57;;;7.90;;
5630;SDS011;2837;50.990;7.124;2022-09-02T18:14:52;144.27;;;7.20;;
5630;SDS011;2837;50.990;7.124;2022-09-02T18:17:35;145.40;;;7.77;;
5630;SDS011;2837;50.990;7.124;2022-09-02T18:20:19;144.37;;;7.20;;
5630;SDS011;2837;50.990;7.124;2022-09-02T18:25:52;144.17;;;8.07;;
5630;SDS011;2837;50.990;7.124;2022-09-02T18:34:07;145.43;;;8.00;;
5630;SDS011;2837;50.990;7.124;2022-09-02T18:37:09;146.13;;;8.33;;
5630;SDS011;2837;50.990;7.124;2022-09-02T18:47:46;146.10;;;8.23;;
5630;SDS011;2837;50.990;7.124;2022-09-02T18:50:22;145.87;;;7.87;;
5630;SDS011;2837;50.990;7.124;2022-09-02T18:52:51;146.10;;;8.70;;
5630;SDS011;2837;50.990;7.124;2022-09-02T18:55:20;146.17;;;9.27;;
5630;SDS011;2837;50.990;7.124;2022-09-02T18:58:01;145.67;;;8.70;;
5630;SDS011;2837;50.990;7.124;2022-09-02T19:00:50;146.67;;;8.63;;
5630;SDS011;2837;50.990;7.124;2022-09-02T19:03:19;147.30;;;9.10;;
5630;SDS011;2837;50.990;7.124;2022-09-02T19:05:44;147.37;;;9.17;;
5630;SDS011;2837;50.990;7.124;2022-09-02T19:08:11;145.17;;;7.90;;
5630;SDS011;2837;50.990;7.124;2022-09-02T19:11:17;146.07;;;8.70;;
5630;SDS011;2837;50.990;7.124;2022-09-02T19:13:49;145.53;;;8.77;;
5630;SDS011;2837;50.990;7.124;2022-09-02T19:18:44;146.70;;;8.80;;
5630;SDS011;2837;50.990;7.124;2022-09-02T19:21:10;145.97;;;8.40;;
5630;SDS011;2837;50.990;7.124;2022-09-02T19:23:48;145.87;;;8.50;;
5630;SDS011;2837;50.990;7.124;2022-09-02T19:26:14;145.70;;;7.67;;
5630;SDS011;2837;50.990;7.124;2022-09-02T19:28:40;146.53;;;8.80;;
5630;SDS011;2837;50.990;7.124;2022-09-02T19:31:06;145.80;;;7.97;;
5630;SDS011;2837;50.990;7.124;2022-09-02T19:33:33;146.10;;;8.43;;
5630;SDS011;2837;50.990;7.124;2022-09-02T19:36:00;146.57;;;8.23;;
5630;SDS011;2837;50.990;7.124;2022-09-02T19:38:26;146.50;;;8.67;;
5630;SDS011;2837;50.990;7.124;2022-09-02T19:40:52;146.43;;;8.27;;
5630;SDS011;2837;50.990;7.124;2022-09-02T19:43:18;146.87;;;8.93;;
5630;SDS011;2837;50.990;7.124;2022-09-02T19:45:44;146.47;;;8.40;;
5630;SDS011;2837;50.990;7.124;2022-09-02T19:48:12;145.87;;;8.17;;
5630;SDS011;2837;50.990;7.124;2022-09-02T19:50:40;152.07;;;8.67;;
5630;SDS011;2837;50.990;7.124;2022-09-02T19:53:08;145.90;;;8.33;;
5630;SDS011;2837;50.990;7.124;2022-09-02T19:55:36;146.23;;;8.53;;
5630;SDS011;2837;50.990;7.124;2022-09-02T19:58:02;151.00;;;8.30;;
5630;SDS011;2837;50.990;7.124;2022-09-02T20:00:28;145.60;;;7.50;;
5630;SDS011;2837;50.990;7.124;2022-09-02T20:02:54;146.60;;;8.60;;
5630;SDS011;2837;50.990;7.124;2022-09-02T20:05:20;146.20;;;8.30;;
5630;SDS011;2837;50.990;7.124;2022-09-02T20:07:48;147.13;;;8.87;;
5630;SDS011;2837;50.990;7.124;2022-09-02T20:10:13;146.87;;;8.50;;
5630;SDS011;2837;50.990;7.124;2022-09-02T20:12:39;146.60;;;9.07;;
5630;SDS011;2837;50.990;7.124;2022-09-02T20:15:05;148.43;;;8.43;;
5630;SDS011;2837;50.990;7.124;2022-09-02T20:17:31;146.77;;;8.43;;
5630;SDS011;2837;50.990;7.124;2022-09-02T20:19:57;146.33;;;7.50;;
5630;SDS011;2837;50.990;7.124;2022-09-02T20:22:29;146.17;;;8.00;;
5630;SDS011;2837;50.990;7.124;2022-09-02T20:24:55;146.77;;;8.30;;
5630;SDS011;2837;50.990;7.124;2022-09-02T20:27:36;146.80;;;9.00;;
5630;SDS011;2837;50.990;7.124;2022-09-02T20:30:18;146.47;;;8.87;;
5630;SDS011;2837;50.990;7.124;2022-09-02T20:46:28;146.57;;;7.90;;
5630;SDS011;2837;50.990;7.124;2022-09-02T20:49:09;147.90;;;7.83;;
5630;SDS011;2837;50.990;7.124;2022-09-02T20:51:46;154.93;;;7.80;;
5630;SDS011;2837;50.990;7.124;2022-09-02T20:57:47;147.27;;;8.80;;
